createdAt,value
2017-11-23T00:01:49.959Z,1.20
2017-11-23T00:04:16.131Z,1.16
2017-11-23T00:06:42.227Z,1.09
2017-11-23T00:09:08.398Z,1.01
2017-11-23T00:11:34.613Z,1.08
2017-11-23T00:14:00.730Z,1.06
2017-11-23T00:16:26.918Z,1.06
2017-11-23T00:18:53.134Z,1.06
2017-11-23T00:21:19.309Z,1.06
2017-11-23T00:23:45.473Z,1.12
2017-11-23T00:26:11.728Z,1.14
2017-11-23T00:28:37.870Z,0.97
2017-11-23T00:31:03.990Z,0.86
2017-11-23T00:33:30.430Z,0.83
2017-11-23T00:35:56.574Z,0.90
2017-11-23T00:38:22.756Z,0.79
2017-11-23T00:40:48.957Z,0.81
2017-11-23T00:43:15.351Z,0.82
2017-11-23T00:45:41.578Z,0.83
2017-11-23T00:48:07.924Z,0.83
2017-11-23T00:50:34.258Z,0.91
2017-11-23T00:53:00.410Z,0.78
2017-11-23T00:55:26.647Z,0.74
2017-11-23T00:57:52.776Z,0.74
2017-11-23T01:00:18.918Z,0.74
2017-11-23T01:02:45.116Z,0.78
2017-11-23T01:05:11.605Z,0.79
2017-11-23T01:07:37.734Z,0.72
2017-11-23T01:10:04.192Z,0.68
2017-11-23T01:12:30.575Z,0.65
2017-11-23T01:14:56.765Z,0.58
2017-11-23T01:17:23.062Z,0.66
2017-11-23T01:19:49.170Z,0.64
2017-11-23T01:22:21.492Z,0.50
2017-11-23T01:24:47.749Z,0.49
2017-11-23T01:27:14.186Z,0.46
2017-11-23T01:29:40.536Z,0.51
2017-11-23T01:32:06.665Z,0.53
2017-11-23T01:34:33.005Z,0.47
2017-11-23T01:37:05.256Z,0.49
2017-11-23T01:39:31.674Z,0.53
2017-11-23T01:41:57.798Z,0.31
2017-11-23T01:44:24.092Z,0.27
2017-11-23T01:46:50.513Z,0.34
2017-11-23T01:49:16.719Z,0.45
2017-11-23T01:51:43.069Z,0.46
2017-11-23T01:54:09.205Z,0.44
2017-11-23T01:56:35.398Z,0.47
2017-11-23T01:59:01.889Z,0.41
2017-11-23T02:01:28.086Z,0.47
2017-11-23T02:03:54.390Z,0.36
2017-11-23T02:06:20.569Z,0.36
2017-11-23T02:08:46.913Z,0.33
2017-11-23T02:11:13.125Z,0.37
2017-11-23T02:13:39.373Z,0.42
2017-11-23T02:16:05.735Z,0.40
2017-11-23T02:18:31.819Z,0.48
2017-11-23T02:20:57.981Z,0.39
2017-11-23T02:23:24.473Z,0.53
2017-11-23T02:25:50.712Z,0.35
2017-11-23T02:28:16.995Z,0.27
2017-11-23T02:30:43.411Z,0.38
2017-11-23T02:33:09.570Z,0.31
2017-11-23T02:35:35.992Z,0.33
2017-11-23T02:38:02.399Z,0.29
2017-11-23T02:40:28.530Z,0.22
2017-11-23T02:43:04.976Z,0.32
2017-11-23T02:45:31.074Z,0.25
2017-11-23T02:47:57.230Z,0.30
2017-11-23T02:50:23.968Z,0.30
2017-11-23T02:52:50.136Z,0.27
2017-11-23T02:55:16.369Z,0.14
2017-11-23T02:57:42.473Z,0.22
2017-11-23T03:00:08.605Z,0.31
2017-11-23T03:02:34.745Z,0.41
2017-11-23T03:05:00.842Z,0.43
2017-11-23T03:07:26.950Z,0.19
2017-11-23T03:09:53.099Z,0.26
2017-11-23T03:12:19.238Z,0.18
2017-11-23T03:14:45.395Z,0.19
2017-11-23T03:17:11.514Z,0.27
2017-11-23T03:19:37.586Z,0.29
2017-11-23T03:22:03.745Z,0.13
2017-11-23T03:24:29.885Z,-0.01
2017-11-23T03:26:56.019Z,0.08
2017-11-23T03:29:22.101Z,0.09
2017-11-23T03:31:48.166Z,0.09
2017-11-23T03:34:14.346Z,0.10
2017-11-23T03:36:40.453Z,0.13
2017-11-23T03:39:06.617Z,0.09
2017-11-23T03:41:32.708Z,0.06
2017-11-23T03:43:58.808Z,0.05
2017-11-23T03:46:25.021Z,0.03
2017-11-23T03:48:51.162Z,0.07
2017-11-23T03:51:17.304Z,0.01
2017-11-23T03:53:43.390Z,0.06
2017-11-23T03:56:09.514Z,-0.05
2017-11-23T03:58:35.671Z,-0.04
2017-11-23T04:01:01.826Z,0.01
2017-11-23T04:03:27.976Z,0.01
2017-11-23T04:05:54.110Z,-0.17
2017-11-23T04:08:20.226Z,-0.06
2017-11-23T04:10:46.439Z,-0.13
2017-11-23T04:13:12.557Z,-0.09
2017-11-23T04:15:38.707Z,-0.11
2017-11-23T04:18:04.882Z,-0.06
2017-11-23T04:20:30.995Z,-0.20
2017-11-23T04:22:57.168Z,-0.17
2017-11-23T04:25:23.249Z,-0.19
2017-11-23T04:27:49.376Z,-0.10
2017-11-23T04:30:15.518Z,-0.16
2017-11-23T04:32:41.745Z,-0.28
2017-11-23T04:35:07.890Z,-0.41
2017-11-23T04:37:34.044Z,-0.33
2017-11-23T04:40:00.160Z,-0.24
2017-11-23T04:42:26.273Z,-0.36
2017-11-23T04:44:52.394Z,-0.34
2017-11-23T04:47:18.511Z,-0.31
2017-11-23T04:49:44.630Z,-0.32
2017-11-23T04:52:10.705Z,-0.41
2017-11-23T04:54:36.844Z,-0.43
2017-11-23T04:57:02.970Z,-0.36
2017-11-23T04:59:29.122Z,-0.47
2017-11-23T05:01:55.320Z,-0.41
2017-11-23T05:04:21.437Z,-0.33
2017-11-23T05:06:47.557Z,-0.53
2017-11-23T05:09:13.709Z,-0.62
2017-11-23T05:11:39.830Z,-0.54
2017-11-23T05:14:06.025Z,-0.79
2017-11-23T05:16:33.509Z,-0.68
2017-11-23T05:18:59.608Z,-0.63
2017-11-23T05:21:25.762Z,-0.40
2017-11-23T05:23:51.867Z,-0.52
2017-11-23T05:26:18.075Z,-0.42
2017-11-23T05:28:44.376Z,-0.53
2017-11-23T05:31:10.800Z,-0.45
2017-11-23T05:33:37.021Z,-0.66
2017-11-23T05:36:03.145Z,-0.65
2017-11-23T05:38:29.241Z,-0.64
2017-11-23T05:40:55.415Z,-0.59
2017-11-23T05:43:21.555Z,-0.61
2017-11-23T05:45:48.150Z,-0.71
2017-11-23T05:48:14.285Z,-0.70
2017-11-23T05:50:40.456Z,-0.77
2017-11-23T05:53:06.527Z,-0.69
2017-11-23T05:55:32.662Z,-0.77
2017-11-23T05:57:58.790Z,-0.64
2017-11-23T06:00:25.021Z,-0.63
2017-11-23T06:02:51.126Z,-0.67
2017-11-23T06:05:17.257Z,-0.64
2017-11-23T06:07:43.452Z,-0.71
2017-11-23T06:10:09.528Z,-0.72
2017-11-23T06:12:35.713Z,-0.80
2017-11-23T06:15:01.829Z,-0.74
2017-11-23T06:17:27.941Z,-0.76
2017-11-23T06:19:54.019Z,-0.70
2017-11-23T06:22:20.431Z,-0.73
2017-11-23T06:24:47.029Z,-0.67
2017-11-23T06:27:16.405Z,-0.60
2017-11-23T06:29:42.550Z,-0.54
2017-11-23T06:32:08.617Z,-0.48
2017-11-23T06:34:34.761Z,-0.48
2017-11-23T06:37:01.236Z,-0.52
2017-11-23T06:39:27.354Z,-0.60
2017-11-23T06:41:53.437Z,-0.63
2017-11-23T06:44:19.577Z,-0.45
2017-11-23T06:46:45.674Z,-0.55
2017-11-23T06:49:11.834Z,-0.55
2017-11-23T06:51:37.953Z,-0.73
2017-11-23T06:54:04.080Z,-0.73
2017-11-23T06:56:30.194Z,-0.72
2017-11-23T06:58:56.389Z,-0.87
2017-11-23T07:01:22.499Z,-0.73
2017-11-23T07:03:48.610Z,-0.71
2017-11-23T07:06:14.831Z,-0.73
2017-11-23T07:08:40.965Z,-0.65
2017-11-23T07:11:07.109Z,-0.75
2017-11-23T07:13:33.329Z,-0.84
2017-11-23T07:15:59.489Z,-0.70
2017-11-23T07:18:25.653Z,-0.70
2017-11-23T07:20:51.837Z,-0.49
2017-11-23T07:23:17.998Z,-0.60
2017-11-23T07:25:44.110Z,-0.64
2017-11-23T07:28:10.330Z,-0.85
2017-11-23T07:30:36.422Z,-0.80
2017-11-23T07:33:02.497Z,-0.58
2017-11-23T07:35:28.652Z,-0.55
2017-11-23T07:37:54.793Z,-0.48
2017-11-23T07:40:20.952Z,-0.22
2017-11-23T07:42:47.114Z,-0.38
2017-11-23T07:45:13.222Z,-0.58
2017-11-23T07:47:39.322Z,-0.41
2017-11-23T07:50:05.481Z,-0.33
2017-11-23T07:52:31.581Z,-0.22
2017-11-23T07:54:57.748Z,-0.14
2017-11-23T07:57:23.841Z,-0.03
2017-11-23T07:59:49.928Z,-0.02
2017-11-23T08:02:16.075Z,0.09
2017-11-23T08:04:42.205Z,0.24
2017-11-23T08:07:08.410Z,0.33
2017-11-23T08:09:34.550Z,0.36
2017-11-23T08:12:00.703Z,0.35
2017-11-23T08:14:26.823Z,0.26
2017-11-23T08:16:52.990Z,0.19
2017-11-23T08:19:19.099Z,0.17
2017-11-23T08:21:45.268Z,0.32
2017-11-23T08:24:11.429Z,0.42
2017-11-23T08:26:37.530Z,0.57
2017-11-23T08:29:03.694Z,0.68
2017-11-23T08:31:29.821Z,0.77
2017-11-23T08:33:55.911Z,0.93
2017-11-23T08:36:22.066Z,0.96
2017-11-23T08:38:48.151Z,1.18
2017-11-23T08:41:14.280Z,1.31
2017-11-23T08:43:40.458Z,1.27
2017-11-23T08:46:06.570Z,1.32
2017-11-23T08:48:32.668Z,1.49
2017-11-23T08:50:58.809Z,1.58
2017-11-23T08:53:24.982Z,1.73
2017-11-23T08:55:51.129Z,1.87
2017-11-23T08:58:17.401Z,2.02
2017-11-23T09:00:43.527Z,2.21
2017-11-23T09:03:09.636Z,2.36
2017-11-23T09:05:41.778Z,2.52
2017-11-23T09:08:07.899Z,2.58
2017-11-23T09:10:34.001Z,2.73
2017-11-23T09:13:00.111Z,2.80
2017-11-23T09:15:26.221Z,2.98
2017-11-23T09:17:52.338Z,3.05
2017-11-23T09:20:18.456Z,3.32
2017-11-23T09:22:44.597Z,3.46
2017-11-23T09:25:10.682Z,3.55
2017-11-23T09:27:36.796Z,3.63
2017-11-23T09:30:03.005Z,3.70
2017-11-23T09:32:29.175Z,3.72
2017-11-23T09:34:55.413Z,3.82
2017-11-23T09:37:21.562Z,3.93
2017-11-23T09:39:47.681Z,4.25
2017-11-23T09:42:13.785Z,4.34
2017-11-23T09:44:39.900Z,4.60
2017-11-23T09:47:06.033Z,4.81
2017-11-23T09:49:32.197Z,4.88
2017-11-23T09:51:58.253Z,5.16
2017-11-23T09:54:24.386Z,5.30
2017-11-23T09:56:50.538Z,5.31
2017-11-23T09:59:16.726Z,5.36
2017-11-23T10:01:42.837Z,5.48
2017-11-23T10:04:08.964Z,5.33
2017-11-23T10:06:35.093Z,5.52
2017-11-23T10:09:01.288Z,5.38
2017-11-23T10:11:27.443Z,5.41
2017-11-23T10:13:53.552Z,5.45
2017-11-23T10:16:19.761Z,5.71
2017-11-23T10:18:45.890Z,5.67
2017-11-23T10:21:12.041Z,5.70
2017-11-23T10:23:38.141Z,5.89
2017-11-23T10:26:04.233Z,5.84
2017-11-23T10:28:30.358Z,5.91
2017-11-23T10:30:56.466Z,5.97
2017-11-23T10:33:22.673Z,6.06
2017-11-23T10:35:48.790Z,6.28
2017-11-23T10:38:14.891Z,6.06
2017-11-23T10:40:40.991Z,6.05
2017-11-23T10:43:07.140Z,6.08
2017-11-23T10:45:33.256Z,6.23
2017-11-23T10:47:59.367Z,6.08
2017-11-23T10:50:25.571Z,6.17
2017-11-23T10:52:51.649Z,6.26
2017-11-23T10:55:17.749Z,6.17
2017-11-23T10:57:44.653Z,6.28
2017-11-23T11:00:10.765Z,6.43
2017-11-23T11:02:36.906Z,6.53
2017-11-23T11:05:03.086Z,6.80
2017-11-23T11:07:29.235Z,6.82
2017-11-23T11:09:55.457Z,7.05
2017-11-23T11:12:21.561Z,7.05
2017-11-23T11:14:47.757Z,7.24
2017-11-23T11:17:13.866Z,7.44
2017-11-23T11:19:40.045Z,7.50
2017-11-23T11:22:06.260Z,7.47
2017-11-23T11:27:25.509Z,7.80
2017-11-23T11:29:51.645Z,7.85
2017-11-23T11:32:17.811Z,7.74
2017-11-23T11:34:43.997Z,7.72
2017-11-23T11:37:10.108Z,7.64
2017-11-23T11:39:36.313Z,7.81
2017-11-23T11:42:02.491Z,7.95
2017-11-23T11:44:28.673Z,8.00
2017-11-23T11:46:54.871Z,8.11
2017-11-23T11:49:21.021Z,8.31
2017-11-23T11:51:47.217Z,8.50
2017-11-23T11:54:13.463Z,8.56
2017-11-23T11:56:39.646Z,8.71
2017-11-23T11:59:05.789Z,8.73
2017-11-23T12:01:31.978Z,8.77
2017-11-23T12:03:58.110Z,8.55
2017-11-23T12:06:24.333Z,8.47
2017-11-23T12:08:50.511Z,8.51
2017-11-23T12:11:16.677Z,8.76
2017-11-23T12:16:55.042Z,8.98
2017-11-23T12:19:21.197Z,9.06
2017-11-23T12:21:51.909Z,9.01
2017-11-23T12:24:28.054Z,9.23
2017-11-23T12:26:54.172Z,9.28
2017-11-23T12:32:22.562Z,9.22
2017-11-23T12:34:48.702Z,8.98
2017-11-23T12:37:14.857Z,9.06
2017-11-23T12:39:40.948Z,8.86
2017-11-23T12:42:07.104Z,9.12
2017-11-23T12:44:33.241Z,9.21
2017-11-23T12:46:59.359Z,9.31
2017-11-23T12:49:25.512Z,9.12
2017-11-23T12:51:51.608Z,9.10
2017-11-23T12:54:17.819Z,9.00
2017-11-23T12:56:43.988Z,9.08
2017-11-23T12:59:10.117Z,9.27
2017-11-23T13:01:36.230Z,9.44
2017-11-23T13:04:02.358Z,9.51
2017-11-23T13:06:28.453Z,9.53
2017-11-23T13:08:54.595Z,9.88
2017-11-23T13:11:20.733Z,9.73
2017-11-23T13:13:46.860Z,9.48
2017-11-23T13:16:12.993Z,9.28
2017-11-23T13:18:39.204Z,9.19
2017-11-23T13:21:05.374Z,9.15
2017-11-23T13:23:31.493Z,9.15
2017-11-23T13:25:57.646Z,9.02
2017-11-23T13:28:23.706Z,8.80
2017-11-23T13:30:49.834Z,8.75
2017-11-23T13:33:16.009Z,8.66
2017-11-23T13:35:42.159Z,8.55
2017-11-23T13:38:08.391Z,8.55
2017-11-23T13:40:34.483Z,8.53
2017-11-23T13:43:00.586Z,8.53
2017-11-23T13:45:26.714Z,8.65
2017-11-23T13:47:52.925Z,8.73
2017-11-23T13:50:19.042Z,9.35
2017-11-23T13:52:45.147Z,9.83
2017-11-23T13:55:11.274Z,10.09
2017-11-23T13:57:37.474Z,9.84
2017-11-23T14:00:03.807Z,9.39
2017-11-23T14:02:29.958Z,9.37
2017-11-23T14:04:56.108Z,9.23
2017-11-23T14:07:22.270Z,9.01
2017-11-23T14:09:48.442Z,8.88
2017-11-23T14:12:14.643Z,8.59
2017-11-23T14:14:40.786Z,8.58
2017-11-23T14:17:06.941Z,8.53
2017-11-23T14:19:33.019Z,8.62
2017-11-23T14:21:59.151Z,8.60
2017-11-23T14:24:25.381Z,8.61
2017-11-23T14:26:51.505Z,8.63
2017-11-23T14:29:17.678Z,8.76
2017-11-23T14:31:43.814Z,8.61
2017-11-23T14:34:09.950Z,8.51
2017-11-23T14:36:36.287Z,8.41
2017-11-23T14:39:12.571Z,8.38
2017-11-23T14:41:38.890Z,8.24
2017-11-23T14:44:05.135Z,8.14
2017-11-23T14:46:31.521Z,7.99
2017-11-23T14:48:58.110Z,7.98
2017-11-23T14:51:24.532Z,8.00
2017-11-23T14:53:51.868Z,8.10
2017-11-23T14:56:28.139Z,7.99
2017-11-23T14:58:55.226Z,7.92
2017-11-23T15:01:21.677Z,7.80
2017-11-23T15:03:47.939Z,7.67
2017-11-23T15:06:14.075Z,7.46
2017-11-23T15:08:40.199Z,7.46
2017-11-23T15:11:06.387Z,7.37
2017-11-23T15:13:32.565Z,7.47
2017-11-23T15:15:58.743Z,7.58
2017-11-23T15:18:24.897Z,7.60
2017-11-23T15:20:51.094Z,7.54
2017-11-23T15:23:17.373Z,7.57
2017-11-23T15:25:43.606Z,7.81
2017-11-23T15:28:09.804Z,7.74
2017-11-23T15:30:36.028Z,7.79
2017-11-23T15:33:02.162Z,7.93
2017-11-23T15:35:28.433Z,7.83
2017-11-23T15:37:54.559Z,7.97
2017-11-23T15:40:21.583Z,7.97
2017-11-23T15:42:47.748Z,8.00
2017-11-23T15:45:13.939Z,7.89
2017-11-23T15:47:40.061Z,7.92
2017-11-23T15:50:06.240Z,7.86
2017-11-23T15:52:32.369Z,7.88
2017-11-23T15:54:58.547Z,7.92
2017-11-23T15:57:24.762Z,7.86
2017-11-23T15:59:50.894Z,7.87
2017-11-23T16:02:17.792Z,7.73
2017-11-23T16:04:44.149Z,7.77
2017-11-23T16:07:11.621Z,7.67
2017-11-23T16:09:38.070Z,7.64
2017-11-23T16:12:04.245Z,7.70
2017-11-23T16:14:30.620Z,7.74
2017-11-23T16:16:56.981Z,7.63
2017-11-23T16:19:23.320Z,7.41
2017-11-23T16:21:49.705Z,7.44
2017-11-23T16:24:16.232Z,7.47
2017-11-23T16:26:42.540Z,7.33
2017-11-23T16:29:08.907Z,7.17
2017-11-23T16:31:35.352Z,6.84
2017-11-23T16:34:01.818Z,6.75
2017-11-23T16:39:36.210Z,6.54
2017-11-23T16:45:13.518Z,6.40
2017-11-23T16:50:52.891Z,6.54
2017-11-23T16:53:25.414Z,6.47
2017-11-23T16:56:00.321Z,6.36
2017-11-23T16:58:47.681Z,6.22
2017-11-23T17:01:20.932Z,6.35
2017-11-23T17:03:53.518Z,6.28
2017-11-23T17:06:24.786Z,6.10
2017-11-23T17:12:09.537Z,5.85
2017-11-23T17:14:41.814Z,5.72
2017-11-23T17:17:14.109Z,5.60
2017-11-23T17:19:40.287Z,5.58
2017-11-23T17:22:06.580Z,5.62
2017-11-23T17:24:33.039Z,5.67
2017-11-23T17:26:59.182Z,5.71
2017-11-23T17:29:25.302Z,5.66
2017-11-23T17:31:51.477Z,5.43
2017-11-23T17:34:17.699Z,5.31
2017-11-23T17:36:43.810Z,5.28
2017-11-23T17:39:09.958Z,5.41
2017-11-23T17:41:36.193Z,5.42
2017-11-23T17:44:02.337Z,5.16
2017-11-23T17:46:28.577Z,4.90
2017-11-23T17:48:54.769Z,4.90
2017-11-23T17:51:20.905Z,4.86
2017-11-23T17:53:47.358Z,5.05
2017-11-23T17:56:13.538Z,4.80
2017-11-23T17:58:39.715Z,4.71
2017-11-23T18:01:06.032Z,4.67
2017-11-23T18:03:33.182Z,4.65
2017-11-23T18:05:59.298Z,4.55
2017-11-23T18:08:25.778Z,4.43
2017-11-23T18:10:51.894Z,4.67
2017-11-23T18:13:18.081Z,5.00
2017-11-23T18:15:44.238Z,5.27
2017-11-23T18:18:10.715Z,5.41
2017-11-23T18:20:36.890Z,5.44
2017-11-23T18:23:03.104Z,5.39
2017-11-23T18:25:29.247Z,5.22
2017-11-23T18:27:55.464Z,4.87
2017-11-23T18:30:21.687Z,4.90
2017-11-23T18:32:47.813Z,4.88
2017-11-23T18:35:13.953Z,4.79
2017-11-23T18:37:40.097Z,4.74
2017-11-23T18:40:06.258Z,4.56
2017-11-23T18:42:32.474Z,4.56
2017-11-23T18:44:58.627Z,4.57
2017-11-23T18:47:24.766Z,4.64
2017-11-23T18:49:50.865Z,4.66
2017-11-23T18:52:17.015Z,4.69
2017-11-23T18:54:43.149Z,4.75
2017-11-23T18:57:09.361Z,4.89
2017-11-23T18:59:35.525Z,4.84
2017-11-23T19:02:02.461Z,4.88
2017-11-23T19:04:28.654Z,4.91
2017-11-23T19:06:54.867Z,4.89
2017-11-23T19:09:21.043Z,4.86
2017-11-23T19:11:47.168Z,4.88
2017-11-23T19:14:13.329Z,4.87
2017-11-23T19:16:39.498Z,4.93
2017-11-23T19:19:05.689Z,4.98
2017-11-23T19:21:31.817Z,4.95
2017-11-23T19:23:57.934Z,4.94
2017-11-23T19:26:24.106Z,4.87
2017-11-23T19:28:50.236Z,4.84
2017-11-23T19:31:16.393Z,4.87
2017-11-23T19:33:42.563Z,4.88
2017-11-23T19:36:08.701Z,4.89
2017-11-23T19:38:34.848Z,4.83
2017-11-23T19:41:01.008Z,4.75
2017-11-23T19:43:27.165Z,4.77
2017-11-23T19:45:53.375Z,4.80
2017-11-23T19:48:21.882Z,4.82
2017-11-23T19:50:49.421Z,4.84
2017-11-23T19:53:15.578Z,4.88
2017-11-23T19:55:41.730Z,4.92
2017-11-23T19:58:08.013Z,4.86
2017-11-23T20:00:34.265Z,4.88
2017-11-23T20:03:00.514Z,4.87
2017-11-23T20:05:26.732Z,4.88
2017-11-23T20:07:52.975Z,5.05
2017-11-23T20:10:19.172Z,5.14
2017-11-23T20:12:45.346Z,5.23
2017-11-23T20:15:11.527Z,5.07
2017-11-23T20:17:37.714Z,5.01
2017-11-23T20:20:04.332Z,5.03
2017-11-23T20:22:30.483Z,5.08
2017-11-23T20:24:56.633Z,5.08
2017-11-23T20:27:22.816Z,5.19
2017-11-23T20:29:48.990Z,5.28
2017-11-23T20:32:15.142Z,5.25
2017-11-23T20:34:41.327Z,5.30
2017-11-23T20:37:07.495Z,5.32
2017-11-23T20:39:33.682Z,5.51
2017-11-23T20:41:59.853Z,5.37
2017-11-23T20:44:26.088Z,5.45
2017-11-23T20:46:52.240Z,5.49
2017-11-23T20:49:18.366Z,5.53
2017-11-23T20:51:44.545Z,5.51
2017-11-23T20:54:10.727Z,5.55
2017-11-23T20:56:36.934Z,5.50
2017-11-23T20:59:03.079Z,5.43
2017-11-23T21:01:29.333Z,5.44
2017-11-23T21:03:56.439Z,5.31
2017-11-23T21:06:22.585Z,5.15
2017-11-23T21:08:48.740Z,5.19
2017-11-23T21:11:14.883Z,5.10
2017-11-23T21:13:41.019Z,5.04
2017-11-23T21:16:07.206Z,4.90
2017-11-23T21:18:33.997Z,4.95
2017-11-23T21:21:00.197Z,4.93
2017-11-23T21:23:26.291Z,4.78
2017-11-23T21:25:52.415Z,4.78
2017-11-23T21:28:18.579Z,4.71
2017-11-23T21:30:44.699Z,4.58
2017-11-23T21:33:11.737Z,4.58
2017-11-23T21:35:37.909Z,4.52
2017-11-23T21:38:04.055Z,4.52
2017-11-23T21:40:30.215Z,4.35
2017-11-23T21:42:56.370Z,4.33
2017-11-23T21:45:22.524Z,4.31
2017-11-23T21:47:48.715Z,4.39
2017-11-23T21:50:14.835Z,4.53
2017-11-23T21:52:41.146Z,4.34
2017-11-23T21:55:07.317Z,4.43
2017-11-23T21:57:33.467Z,4.37
2017-11-23T22:00:00.456Z,4.73
2017-11-23T22:02:26.642Z,4.68
2017-11-23T22:04:52.750Z,4.62
2017-11-23T22:07:18.899Z,4.40
2017-11-23T22:09:45.018Z,4.22
2017-11-23T22:12:11.110Z,4.21
2017-11-23T22:14:37.291Z,4.19
2017-11-23T22:17:03.441Z,4.18
2017-11-23T22:19:29.583Z,4.33
2017-11-23T22:21:55.676Z,4.26
2017-11-23T22:24:21.874Z,4.23
2017-11-23T22:26:48.018Z,4.17
2017-11-23T22:29:14.166Z,4.15
2017-11-23T22:31:40.322Z,4.18
2017-11-23T22:34:06.497Z,4.10
2017-11-23T22:36:32.566Z,3.85
2017-11-23T22:38:58.717Z,3.85
2017-11-23T22:41:24.964Z,3.64
2017-11-23T22:43:51.197Z,3.60
2017-11-23T22:46:17.619Z,3.63
2017-11-23T22:48:43.974Z,3.67
2017-11-23T22:51:10.186Z,3.84
2017-11-23T22:53:36.486Z,3.77
2017-11-23T22:56:02.851Z,3.70
2017-11-23T22:58:28.993Z,3.66
2017-11-23T23:00:55.093Z,3.29
2017-11-23T23:03:21.306Z,3.22
2017-11-23T23:05:47.627Z,3.44
2017-11-23T23:08:13.836Z,3.61
2017-11-23T23:10:40.055Z,3.50
2017-11-23T23:13:06.291Z,3.41
2017-11-23T23:15:32.535Z,3.45
2017-11-23T23:17:58.698Z,3.32
2017-11-23T23:20:24.947Z,3.37
2017-11-23T23:22:51.141Z,3.34
2017-11-23T23:25:17.475Z,3.22
2017-11-23T23:27:45.539Z,3.12
2017-11-23T23:30:11.759Z,3.11
2017-11-23T23:32:37.861Z,3.16
2017-11-23T23:35:04.128Z,3.18
2017-11-23T23:37:30.186Z,3.13
2017-11-23T23:39:56.328Z,2.96
2017-11-23T23:42:22.457Z,2.79
2017-11-23T23:44:48.505Z,2.73
2017-11-23T23:47:14.617Z,2.80
2017-11-23T23:49:40.733Z,2.68
2017-11-23T23:52:06.814Z,2.63
2017-11-23T23:54:32.940Z,2.59
2017-11-23T23:56:59.033Z,2.66
2017-11-23T23:59:25.262Z,2.76
